sensor_id;sensor_type;location;lat;lon;timestamp;P1;durP1;ratioP1;P2;durP2;ratioP2
30519;SDS011;17300;50.374;8.006;2022-08-19T00:00:56;12.87;;;11.93;;
30519;SDS011;17300;50.374;8.006;2022-08-19T00:03:25;13.90;;;12.70;;
30519;SDS011;17300;50.374;8.006;2022-08-19T00:05:52;13.40;;;12.33;;
30519;SDS011;17300;50.374;8.006;2022-08-19T00:08:18;13.10;;;12.00;;
30519;SDS011;17300;50.374;8.006;2022-08-19T00:10:45;13.80;;;12.70;;
30519;SDS011;17300;50.374;8.006;2022-08-19T00:13:12;14.10;;;12.90;;
30519;SDS011;17300;50.374;8.006;2022-08-19T00:15:41;13.70;;;12.60;;
30519;SDS011;17300;50.374;8.006;2022-08-19T00:18:09;14.33;;;13.23;;
30519;SDS011;17300;50.374;8.006;2022-08-19T00:20:37;13.00;;;12.00;;
30519;SDS011;17300;50.374;8.006;2022-08-19T00:23:05;13.03;;;12.03;;
30519;SDS011;17300;50.374;8.006;2022-08-19T00:25:32;13.27;;;12.17;;
30519;SDS011;17300;50.374;8.006;2022-08-19T00:27:59;13.07;;;12.07;;
30519;SDS011;17300;50.374;8.006;2022-08-19T00:30:26;13.03;;;12.10;;
30519;SDS011;17300;50.374;8.006;2022-08-19T00:32:53;13.33;;;12.23;;
30519;SDS011;17300;50.374;8.006;2022-08-19T00:35:20;13.47;;;12.37;;
30519;SDS011;17300;50.374;8.006;2022-08-19T00:37:48;12.90;;;11.90;;
30519;SDS011;17300;50.374;8.006;2022-08-19T00:40:16;12.80;;;11.80;;
30519;SDS011;17300;50.374;8.006;2022-08-19T00:42:44;13.63;;;12.63;;
30519;SDS011;17300;50.374;8.006;2022-08-19T00:45:13;13.50;;;12.47;;
30519;SDS011;17300;50.374;8.006;2022-08-19T00:47:42;12.80;;;11.87;;
30519;SDS011;17300;50.374;8.006;2022-08-19T00:50:09;12.73;;;11.73;;
30519;SDS011;17300;50.374;8.006;2022-08-19T00:52:39;13.47;;;12.37;;
30519;SDS011;17300;50.374;8.006;2022-08-19T00:55:12;12.37;;;11.37;;
30519;SDS011;17300;50.374;8.006;2022-08-19T00:57:42;12.53;;;11.53;;
30519;SDS011;17300;50.374;8.006;2022-08-19T01:00:13;12.93;;;11.97;;
30519;SDS011;17300;50.374;8.006;2022-08-19T01:02:42;12.27;;;11.27;;
30519;SDS011;17300;50.374;8.006;2022-08-19T01:05:11;13.20;;;12.20;;
30519;SDS011;17300;50.374;8.006;2022-08-19T01:07:43;12.00;;;11.10;;
30519;SDS011;17300;50.374;8.006;2022-08-19T01:10:12;12.00;;;11.10;;
30519;SDS011;17300;50.374;8.006;2022-08-19T01:12:41;12.43;;;11.53;;
30519;SDS011;17300;50.374;8.006;2022-08-19T01:15:10;12.93;;;11.93;;
30519;SDS011;17300;50.374;8.006;2022-08-19T01:17:59;12.93;;;11.93;;
30519;SDS011;17300;50.374;8.006;2022-08-19T01:20:40;12.70;;;11.60;;
30519;SDS011;17300;50.374;8.006;2022-08-19T01:23:26;12.67;;;11.70;;
30519;SDS011;17300;50.374;8.006;2022-08-19T01:26:13;11.77;;;10.77;;
30519;SDS011;17300;50.374;8.006;2022-08-19T01:29:08;12.17;;;11.17;;
30519;SDS011;17300;50.374;8.006;2022-08-19T01:32:01;11.77;;;10.87;;
30519;SDS011;17300;50.374;8.006;2022-08-19T01:34:39;12.60;;;11.60;;
30519;SDS011;17300;50.374;8.006;2022-08-19T01:37:26;12.17;;;11.17;;
30519;SDS011;17300;50.374;8.006;2022-08-19T01:39:58;12.43;;;11.43;;
30519;SDS011;17300;50.374;8.006;2022-08-19T01:42:27;12.40;;;11.40;;
30519;SDS011;17300;50.374;8.006;2022-08-19T01:44:56;13.13;;;12.03;;
30519;SDS011;17300;50.374;8.006;2022-08-19T01:47:29;12.40;;;11.40;;
30519;SDS011;17300;50.374;8.006;2022-08-19T01:50:17;12.37;;;11.37;;
30519;SDS011;17300;50.374;8.006;2022-08-19T01:52:53;12.80;;;11.70;;
30519;SDS011;17300;50.374;8.006;2022-08-19T01:55:38;12.70;;;11.70;;
30519;SDS011;17300;50.374;8.006;2022-08-19T01:58:18;12.43;;;11.43;;
30519;SDS011;17300;50.374;8.006;2022-08-19T02:00:55;12.07;;;11.07;;
30519;SDS011;17300;50.374;8.006;2022-08-19T02:03:39;11.23;;;10.43;;
30519;SDS011;17300;50.374;8.006;2022-08-19T02:06:16;11.23;;;10.33;;
30519;SDS011;17300;50.374;8.006;2022-08-19T02:09:09;11.23;;;10.23;;
30519;SDS011;17300;50.374;8.006;2022-08-19T02:11:59;11.87;;;11.00;;
30519;SDS011;17300;50.374;8.006;2022-08-19T02:14:40;12.73;;;11.73;;
30519;SDS011;17300;50.374;8.006;2022-08-19T02:17:24;12.67;;;11.67;;
30519;SDS011;17300;50.374;8.006;2022-08-19T02:20:14;13.40;;;12.30;;
30519;SDS011;17300;50.374;8.006;2022-08-19T02:25:41;12.07;;;11.13;;
30519;SDS011;17300;50.374;8.006;2022-08-19T02:28:14;11.67;;;10.77;;
30519;SDS011;17300;50.374;8.006;2022-08-19T02:30:43;11.97;;;10.97;;
30519;SDS011;17300;50.374;8.006;2022-08-19T02:33:11;12.63;;;11.67;;
30519;SDS011;17300;50.374;8.006;2022-08-19T02:35:46;12.13;;;11.23;;
30519;SDS011;17300;50.374;8.006;2022-08-19T02:38:20;12.23;;;11.33;;
30519;SDS011;17300;50.374;8.006;2022-08-19T02:40:58;11.83;;;10.93;;
30519;SDS011;17300;50.374;8.006;2022-08-19T02:43:31;12.43;;;11.47;;
30519;SDS011;17300;50.374;8.006;2022-08-19T02:46:10;12.37;;;11.47;;
30519;SDS011;17300;50.374;8.006;2022-08-19T02:48:45;12.43;;;11.47;;
30519;SDS011;17300;50.374;8.006;2022-08-19T02:51:39;13.10;;;11.93;;
30519;SDS011;17300;50.374;8.006;2022-08-19T02:54:08;12.40;;;11.40;;
30519;SDS011;17300;50.374;8.006;2022-08-19T02:56:38;12.30;;;11.30;;
30519;SDS011;17300;50.374;8.006;2022-08-19T02:59:20;12.67;;;11.67;;
30519;SDS011;17300;50.374;8.006;2022-08-19T03:02:01;11.83;;;10.90;;
30519;SDS011;17300;50.374;8.006;2022-08-19T03:04:38;12.63;;;11.63;;
30519;SDS011;17300;50.374;8.006;2022-08-19T03:12:46;12.13;;;11.23;;
30519;SDS011;17300;50.374;8.006;2022-08-19T03:15:23;12.67;;;11.57;;
30519;SDS011;17300;50.374;8.006;2022-08-19T03:18:00;12.83;;;11.87;;
30519;SDS011;17300;50.374;8.006;2022-08-19T03:20:39;12.03;;;11.13;;
30519;SDS011;17300;50.374;8.006;2022-08-19T03:23:20;12.13;;;11.13;;
30519;SDS011;17300;50.374;8.006;2022-08-19T03:26:03;13.03;;;11.93;;
30519;SDS011;17300;50.374;8.006;2022-08-19T03:28:33;12.77;;;11.77;;
30519;SDS011;17300;50.374;8.006;2022-08-19T03:31:17;14.43;;;13.33;;
30519;SDS011;17300;50.374;8.006;2022-08-19T03:33:59;13.80;;;12.67;;
30519;SDS011;17300;50.374;8.006;2022-08-19T03:36:34;13.83;;;12.70;;
30519;SDS011;17300;50.374;8.006;2022-08-19T03:39:04;13.03;;;12.03;;
30519;SDS011;17300;50.374;8.006;2022-08-19T03:41:39;13.47;;;12.43;;
30519;SDS011;17300;50.374;8.006;2022-08-19T03:44:24;13.00;;;11.90;;
30519;SDS011;17300;50.374;8.006;2022-08-19T03:47:06;13.70;;;12.60;;
30519;SDS011;17300;50.374;8.006;2022-08-19T03:49:51;12.47;;;11.47;;
30519;SDS011;17300;50.374;8.006;2022-08-19T03:52:22;13.10;;;12.00;;
30519;SDS011;17300;50.374;8.006;2022-08-19T03:55:05;12.90;;;11.80;;
30519;SDS011;17300;50.374;8.006;2022-08-19T03:57:38;13.27;;;12.27;;
30519;SDS011;17300;50.374;8.006;2022-08-19T04:00:08;13.50;;;12.40;;
30519;SDS011;17300;50.374;8.006;2022-08-19T04:02:59;12.40;;;11.40;;
30519;SDS011;17300;50.374;8.006;2022-08-19T04:05:31;11.67;;;10.77;;
30519;SDS011;17300;50.374;8.006;2022-08-19T04:08:12;12.30;;;11.30;;
30519;SDS011;17300;50.374;8.006;2022-08-19T04:10:50;11.87;;;10.97;;
30519;SDS011;17300;50.374;8.006;2022-08-19T04:13:45;12.67;;;11.67;;
30519;SDS011;17300;50.374;8.006;2022-08-19T04:16:25;12.63;;;11.63;;
30519;SDS011;17300;50.374;8.006;2022-08-19T04:19:12;11.77;;;10.83;;
30519;SDS011;17300;50.374;8.006;2022-08-19T04:22:06;11.67;;;10.77;;
30519;SDS011;17300;50.374;8.006;2022-08-19T04:24:52;12.10;;;11.13;;
30519;SDS011;17300;50.374;8.006;2022-08-19T04:30:45;12.77;;;11.77;;
30519;SDS011;17300;50.374;8.006;2022-08-19T04:33:39;12.37;;;11.27;;
30519;SDS011;17300;50.374;8.006;2022-08-19T04:36:23;13.10;;;12.03;;
30519;SDS011;17300;50.374;8.006;2022-08-19T04:38:56;12.53;;;11.57;;
30519;SDS011;17300;50.374;8.006;2022-08-19T04:41:34;13.40;;;12.30;;
30519;SDS011;17300;50.374;8.006;2022-08-19T04:44:29;12.83;;;11.70;;
30519;SDS011;17300;50.374;8.006;2022-08-19T04:47:23;13.70;;;12.60;;
30519;SDS011;17300;50.374;8.006;2022-08-19T04:50:05;13.77;;;12.67;;
30519;SDS011;17300;50.374;8.006;2022-08-19T04:52:39;13.27;;;12.17;;
30519;SDS011;17300;50.374;8.006;2022-08-19T04:55:08;12.90;;;11.87;;
30519;SDS011;17300;50.374;8.006;2022-08-19T04:57:43;13.37;;;12.37;;
30519;SDS011;17300;50.374;8.006;2022-08-19T05:00:16;14.03;;;12.73;;
30519;SDS011;17300;50.374;8.006;2022-08-19T05:02:51;14.13;;;12.83;;
30519;SDS011;17300;50.374;8.006;2022-08-19T05:05:40;14.00;;;12.87;;
30519;SDS011;17300;50.374;8.006;2022-08-19T05:08:14;14.13;;;13.03;;
30519;SDS011;17300;50.374;8.006;2022-08-19T05:10:53;14.80;;;13.37;;
30519;SDS011;17300;50.374;8.006;2022-08-19T05:13:32;13.30;;;12.30;;
30519;SDS011;17300;50.374;8.006;2022-08-19T05:16:40;14.13;;;13.03;;
30519;SDS011;17300;50.374;8.006;2022-08-19T05:22:04;12.70;;;11.70;;
30519;SDS011;17300;50.374;8.006;2022-08-19T05:24:55;13.40;;;12.30;;
30519;SDS011;17300;50.374;8.006;2022-08-19T05:27:33;12.87;;;11.87;;
30519;SDS011;17300;50.374;8.006;2022-08-19T05:30:22;13.03;;;12.00;;
30519;SDS011;17300;50.374;8.006;2022-08-19T05:33:16;13.17;;;12.17;;
30519;SDS011;17300;50.374;8.006;2022-08-19T05:35:53;12.50;;;11.53;;
30519;SDS011;17300;50.374;8.006;2022-08-19T05:38:29;12.73;;;11.67;;
30519;SDS011;17300;50.374;8.006;2022-08-19T05:41:10;13.10;;;11.90;;
30519;SDS011;17300;50.374;8.006;2022-08-19T05:43:42;12.43;;;11.43;;
30519;SDS011;17300;50.374;8.006;2022-08-19T05:46:18;13.10;;;12.00;;
30519;SDS011;17300;50.374;8.006;2022-08-19T05:48:50;13.03;;;11.93;;
30519;SDS011;17300;50.374;8.006;2022-08-19T05:51:21;12.57;;;11.57;;
30519;SDS011;17300;50.374;8.006;2022-08-19T05:54:02;12.73;;;11.63;;
30519;SDS011;17300;50.374;8.006;2022-08-19T05:56:41;11.57;;;10.63;;
30519;SDS011;17300;50.374;8.006;2022-08-19T05:59:21;12.77;;;11.57;;
30519;SDS011;17300;50.374;8.006;2022-08-19T06:01:52;11.10;;;10.23;;
30519;SDS011;17300;50.374;8.006;2022-08-19T06:04:28;13.20;;;12.10;;
30519;SDS011;17300;50.374;8.006;2022-08-19T06:06:58;12.20;;;11.25;;
30519;SDS011;17300;50.374;8.006;2022-08-19T06:09:28;12.70;;;11.80;;
30519;SDS011;17300;50.374;8.006;2022-08-19T06:12:01;12.70;;;11.60;;
30519;SDS011;17300;50.374;8.006;2022-08-19T06:14:36;11.75;;;10.65;;
30519;SDS011;17300;50.374;8.006;2022-08-19T06:17:08;12.10;;;11.00;;
30519;SDS011;17300;50.374;8.006;2022-08-19T06:19:45;12.25;;;11.23;;
30519;SDS011;17300;50.374;8.006;2022-08-19T06:22:27;11.00;;;10.20;;
30519;SDS011;17300;50.374;8.006;2022-08-19T06:28:21;11.10;;;10.30;;
30519;SDS011;17300;50.374;8.006;2022-08-19T06:31:08;11.55;;;10.65;;
30519;SDS011;17300;50.374;8.006;2022-08-19T06:40:41;10.70;;;9.80;;
30519;SDS011;17300;50.374;8.006;2022-08-19T06:43:44;10.73;;;9.93;;
30519;SDS011;17300;50.374;8.006;2022-08-19T06:47:23;11.18;;;10.30;;
30519;SDS011;17300;50.374;8.006;2022-08-19T06:49:14;11.88;;;10.98;;
30519;SDS011;17300;50.374;8.006;2022-08-19T06:51:47;10.63;;;9.82;;
30519;SDS011;17300;50.374;8.006;2022-08-19T07:07:54;11.40;;;10.52;;
30519;SDS011;17300;50.374;8.006;2022-08-19T07:10:27;12.80;;;11.75;;
30519;SDS011;17300;50.374;8.006;2022-08-19T07:16:26;11.18;;;10.30;;
30519;SDS011;17300;50.374;8.006;2022-08-19T07:18:53;12.70;;;11.70;;
30519;SDS011;17300;50.374;8.006;2022-08-19T07:21:22;11.43;;;10.50;;
30519;SDS011;17300;50.374;8.006;2022-08-19T07:23:53;12.20;;;11.30;;
30519;SDS011;17300;50.374;8.006;2022-08-19T07:31:31;12.90;;;11.80;;
30519;SDS011;17300;50.374;8.006;2022-08-19T07:34:02;12.85;;;11.77;;
30519;SDS011;17300;50.374;8.006;2022-08-19T07:36:31;11.40;;;10.57;;
30519;SDS011;17300;50.374;8.006;2022-08-19T07:39:02;12.07;;;11.13;;
30519;SDS011;17300;50.374;8.006;2022-08-19T07:41:32;11.25;;;10.43;;
30519;SDS011;17300;50.374;8.006;2022-08-19T07:44:02;11.38;;;10.40;;
30519;SDS011;17300;50.374;8.006;2022-08-19T07:46:30;11.60;;;10.60;;
30519;SDS011;17300;50.374;8.006;2022-08-19T07:48:57;11.27;;;10.38;;
30519;SDS011;17300;50.374;8.006;2022-08-19T07:51:25;11.27;;;10.38;;
30519;SDS011;17300;50.374;8.006;2022-08-19T07:53:53;10.10;;;9.30;;
30519;SDS011;17300;50.374;8.006;2022-08-19T07:56:22;11.50;;;10.68;;
30519;SDS011;17300;50.374;8.006;2022-08-19T07:58:50;11.82;;;10.95;;
30519;SDS011;17300;50.374;8.006;2022-08-19T08:01:18;14.13;;;13.02;;
30519;SDS011;17300;50.374;8.006;2022-08-19T08:03:47;12.52;;;11.63;;
30519;SDS011;17300;50.374;8.006;2022-08-19T08:06:31;12.48;;;11.45;;
30519;SDS011;17300;50.374;8.006;2022-08-19T08:09:20;10.93;;;10.13;;
30519;SDS011;17300;50.374;8.006;2022-08-19T08:11:51;10.05;;;9.32;;
30519;SDS011;17300;50.374;8.006;2022-08-19T08:14:20;10.82;;;10.07;;
30519;SDS011;17300;50.374;8.006;2022-08-19T08:16:49;10.50;;;9.77;;
30519;SDS011;17300;50.374;8.006;2022-08-19T08:19:17;10.60;;;9.80;;
30519;SDS011;17300;50.374;8.006;2022-08-19T08:21:46;10.88;;;10.00;;
30519;SDS011;17300;50.374;8.006;2022-08-19T08:24:13;10.93;;;10.13;;
30519;SDS011;17300;50.374;8.006;2022-08-19T08:26:40;10.63;;;9.85;;
30519;SDS011;17300;50.374;8.006;2022-08-19T08:29:10;9.95;;;9.18;;
30519;SDS011;17300;50.374;8.006;2022-08-19T08:31:37;9.85;;;9.15;;
30519;SDS011;17300;50.374;8.006;2022-08-19T08:34:05;9.65;;;9.05;;
30519;SDS011;17300;50.374;8.006;2022-08-19T08:36:32;10.30;;;9.57;;
30519;SDS011;17300;50.374;8.006;2022-08-19T08:39:06;9.35;;;8.75;;
30519;SDS011;17300;50.374;8.006;2022-08-19T08:41:35;9.77;;;8.95;;
30519;SDS011;17300;50.374;8.006;2022-08-19T08:44:05;9.90;;;9.10;;
30519;SDS011;17300;50.374;8.006;2022-08-19T08:46:36;10.30;;;9.50;;
30519;SDS011;17300;50.374;8.006;2022-08-19T08:49:12;9.05;;;8.43;;
30519;SDS011;17300;50.374;8.006;2022-08-19T08:51:47;9.30;;;8.50;;
30519;SDS011;17300;50.374;8.006;2022-08-19T08:54:19;8.48;;;7.88;;
30519;SDS011;17300;50.374;8.006;2022-08-19T08:56:50;8.18;;;7.68;;
30519;SDS011;17300;50.374;8.006;2022-08-19T08:59:23;7.60;;;7.10;;
30519;SDS011;17300;50.374;8.006;2022-08-19T09:01:55;8.63;;;7.93;;
30519;SDS011;17300;50.374;8.006;2022-08-19T09:04:22;7.95;;;7.35;;
30519;SDS011;17300;50.374;8.006;2022-08-19T09:06:51;8.07;;;7.28;;
30519;SDS011;17300;50.374;8.006;2022-08-19T09:09:23;7.20;;;6.80;;
30519;SDS011;17300;50.374;8.006;2022-08-19T09:11:59;6.88;;;6.28;;
30519;SDS011;17300;50.374;8.006;2022-08-19T09:14:35;7.18;;;6.68;;
30519;SDS011;17300;50.374;8.006;2022-08-19T09:17:08;7.10;;;6.70;;
30519;SDS011;17300;50.374;8.006;2022-08-19T09:19:36;6.88;;;6.38;;
30519;SDS011;17300;50.374;8.006;2022-08-19T09:22:15;7.07;;;6.57;;
30519;SDS011;17300;50.374;8.006;2022-08-19T09:24:41;7.07;;;6.60;;
30519;SDS011;17300;50.374;8.006;2022-08-19T09:27:08;6.97;;;6.47;;
30519;SDS011;17300;50.374;8.006;2022-08-19T09:29:35;6.22;;;5.82;;
30519;SDS011;17300;50.374;8.006;2022-08-19T09:32:02;5.32;;;5.03;;
30519;SDS011;17300;50.374;8.006;2022-08-19T09:34:31;5.93;;;5.43;;
30519;SDS011;17300;50.374;8.006;2022-08-19T09:36:58;4.80;;;4.40;;
30519;SDS011;17300;50.374;8.006;2022-08-19T09:39:31;5.18;;;4.82;;
30519;SDS011;17300;50.374;8.006;2022-08-19T09:41:58;5.13;;;4.65;;
30519;SDS011;17300;50.374;8.006;2022-08-19T09:44:25;5.15;;;4.65;;
30519;SDS011;17300;50.374;8.006;2022-08-19T09:46:52;4.35;;;4.05;;
30519;SDS011;17300;50.374;8.006;2022-08-19T09:49:19;5.20;;;4.90;;
30519;SDS011;17300;50.374;8.006;2022-08-19T09:51:50;4.82;;;4.53;;
30519;SDS011;17300;50.374;8.006;2022-08-19T09:54:20;4.65;;;4.35;;
30519;SDS011;17300;50.374;8.006;2022-08-19T09:56:47;4.25;;;4.05;;
30519;SDS011;17300;50.374;8.006;2022-08-19T09:59:14;4.55;;;4.15;;
30519;SDS011;17300;50.374;8.006;2022-08-19T10:01:41;4.20;;;3.92;;
30519;SDS011;17300;50.374;8.006;2022-08-19T10:04:08;4.10;;;3.80;;
30519;SDS011;17300;50.374;8.006;2022-08-19T10:06:35;3.83;;;3.53;;
30519;SDS011;17300;50.374;8.006;2022-08-19T10:09:06;3.70;;;3.50;;
30519;SDS011;17300;50.374;8.006;2022-08-19T10:11:34;3.97;;;3.70;;
30519;SDS011;17300;50.374;8.006;2022-08-19T10:14:02;3.70;;;3.45;;
30519;SDS011;17300;50.374;8.006;2022-08-19T10:16:30;3.55;;;3.35;;
30519;SDS011;17300;50.374;8.006;2022-08-19T10:18:57;3.47;;;3.28;;
30519;SDS011;17300;50.374;8.006;2022-08-19T10:21:25;3.70;;;3.50;;
30519;SDS011;17300;50.374;8.006;2022-08-19T10:23:55;3.55;;;3.35;;
30519;SDS011;17300;50.374;8.006;2022-08-19T10:26:26;3.33;;;3.13;;
30519;SDS011;17300;50.374;8.006;2022-08-19T10:28:54;2.80;;;2.70;;
30519;SDS011;17300;50.374;8.006;2022-08-19T10:31:23;3.22;;;3.03;;
30519;SDS011;17300;50.374;8.006;2022-08-19T10:33:52;3.35;;;3.15;;
30519;SDS011;17300;50.374;8.006;2022-08-19T10:36:23;3.10;;;2.90;;
30519;SDS011;17300;50.374;8.006;2022-08-19T10:38:53;2.83;;;2.63;;
30519;SDS011;17300;50.374;8.006;2022-08-19T10:41:24;2.83;;;2.63;;
30519;SDS011;17300;50.374;8.006;2022-08-19T10:43:53;3.55;;;2.88;;
30519;SDS011;17300;50.374;8.006;2022-08-19T10:46:23;3.05;;;2.85;;
30519;SDS011;17300;50.374;8.006;2022-08-19T10:48:51;2.80;;;2.65;;
30519;SDS011;17300;50.374;8.006;2022-08-19T10:51:19;2.95;;;2.67;;
30519;SDS011;17300;50.374;8.006;2022-08-19T10:54:04;3.10;;;2.80;;
30519;SDS011;17300;50.374;8.006;2022-08-19T10:56:33;2.47;;;2.38;;
30519;SDS011;17300;50.374;8.006;2022-08-19T10:59:17;2.75;;;2.55;;
30519;SDS011;17300;50.374;8.006;2022-08-19T11:01:46;2.20;;;2.10;;
30519;SDS011;17300;50.374;8.006;2022-08-19T11:04:14;2.50;;;2.30;;
30519;SDS011;17300;50.374;8.006;2022-08-19T11:06:42;2.53;;;2.33;;
30519;SDS011;17300;50.374;8.006;2022-08-19T11:09:12;3.15;;;2.17;;
30519;SDS011;17300;50.374;8.006;2022-08-19T11:11:41;2.78;;;2.17;;
30519;SDS011;17300;50.374;8.006;2022-08-19T11:14:09;2.10;;;2.00;;
30519;SDS011;17300;50.374;8.006;2022-08-19T11:16:37;2.25;;;2.15;;
30519;SDS011;17300;50.374;8.006;2022-08-19T11:19:05;2.70;;;2.50;;
30519;SDS011;17300;50.374;8.006;2022-08-19T11:21:34;2.03;;;1.92;;
30519;SDS011;17300;50.374;8.006;2022-08-19T11:24:03;2.47;;;2.30;;
30519;SDS011;17300;50.374;8.006;2022-08-19T11:26:32;2.50;;;2.33;;
30519;SDS011;17300;50.374;8.006;2022-08-19T11:29:01;2.38;;;2.20;;
30519;SDS011;17300;50.374;8.006;2022-08-19T11:31:30;2.55;;;2.42;;
30519;SDS011;17300;50.374;8.006;2022-08-19T11:33:58;2.53;;;2.42;;
30519;SDS011;17300;50.374;8.006;2022-08-19T11:36:27;2.65;;;2.45;;
30519;SDS011;17300;50.374;8.006;2022-08-19T11:38:54;2.70;;;2.53;;
30519;SDS011;17300;50.374;8.006;2022-08-19T11:41:22;2.40;;;2.20;;
30519;SDS011;17300;50.374;8.006;2022-08-19T11:43:50;2.58;;;2.47;;
30519;SDS011;17300;50.374;8.006;2022-08-19T11:46:20;2.78;;;2.20;;
30519;SDS011;17300;50.374;8.006;2022-08-19T11:48:56;2.72;;;2.50;;
30519;SDS011;17300;50.374;8.006;2022-08-19T11:51:34;2.75;;;2.55;;
30519;SDS011;17300;50.374;8.006;2022-08-19T11:54:03;2.40;;;2.30;;
30519;SDS011;17300;50.374;8.006;2022-08-19T11:56:31;2.92;;;2.72;;
30519;SDS011;17300;50.374;8.006;2022-08-19T11:58:58;2.58;;;2.38;;
30519;SDS011;17300;50.374;8.006;2022-08-19T12:01:28;2.45;;;2.35;;
30519;SDS011;17300;50.374;8.006;2022-08-19T12:03:56;2.35;;;2.25;;
30519;SDS011;17300;50.374;8.006;2022-08-19T12:06:24;2.53;;;2.42;;
30519;SDS011;17300;50.374;8.006;2022-08-19T12:08:53;2.90;;;2.70;;
30519;SDS011;17300;50.374;8.006;2022-08-19T12:11:20;2.88;;;2.67;;
30519;SDS011;17300;50.374;8.006;2022-08-19T12:13:47;2.70;;;2.50;;
30519;SDS011;17300;50.374;8.006;2022-08-19T12:16:15;2.33;;;2.22;;
30519;SDS011;17300;50.374;8.006;2022-08-19T12:18:47;2.65;;;2.45;;
30519;SDS011;17300;50.374;8.006;2022-08-19T12:21:16;2.95;;;2.70;;
30519;SDS011;17300;50.374;8.006;2022-08-19T12:23:48;3.00;;;2.80;;
30519;SDS011;17300;50.374;8.006;2022-08-19T12:26:16;3.42;;;3.13;;
30519;SDS011;17300;50.374;8.006;2022-08-19T12:28:43;4.28;;;3.88;;
30519;SDS011;17300;50.374;8.006;2022-08-19T12:31:11;3.50;;;3.30;;
30519;SDS011;17300;50.374;8.006;2022-08-19T12:33:38;3.47;;;3.28;;
30519;SDS011;17300;50.374;8.006;2022-08-19T12:36:09;3.47;;;3.28;;
30519;SDS011;17300;50.374;8.006;2022-08-19T12:38:38;3.65;;;3.45;;
30519;SDS011;17300;50.374;8.006;2022-08-19T12:41:06;3.53;;;3.22;;
30519;SDS011;17300;50.374;8.006;2022-08-19T12:43:37;3.80;;;3.50;;
30519;SDS011;17300;50.374;8.006;2022-08-19T12:46:05;3.33;;;3.10;;
30519;SDS011;17300;50.374;8.006;2022-08-19T12:48:32;2.50;;;2.40;;
30519;SDS011;17300;50.374;8.006;2022-08-19T12:50:59;3.13;;;2.88;;
30519;SDS011;17300;50.374;8.006;2022-08-19T12:53:28;4.43;;;2.90;;
30519;SDS011;17300;50.374;8.006;2022-08-19T12:55:55;3.25;;;3.05;;
30519;SDS011;17300;50.374;8.006;2022-08-19T12:58:22;2.95;;;2.78;;
30519;SDS011;17300;50.374;8.006;2022-08-19T13:00:50;2.83;;;2.72;;
30519;SDS011;17300;50.374;8.006;2022-08-19T13:03:16;3.25;;;3.00;;
30519;SDS011;17300;50.374;8.006;2022-08-19T13:05:43;2.90;;;2.70;;
30519;SDS011;17300;50.374;8.006;2022-08-19T13:08:10;2.97;;;2.67;;
30519;SDS011;17300;50.374;8.006;2022-08-19T13:10:38;2.97;;;2.78;;
30519;SDS011;17300;50.374;8.006;2022-08-19T13:13:06;3.05;;;2.85;;
30519;SDS011;17300;50.374;8.006;2022-08-19T13:15:35;3.78;;;3.40;;
30519;SDS011;17300;50.374;8.006;2022-08-19T13:18:04;3.58;;;3.28;;
30519;SDS011;17300;50.374;8.006;2022-08-19T13:20:34;3.50;;;3.28;;
30519;SDS011;17300;50.374;8.006;2022-08-19T13:23:07;2.70;;;2.60;;
30519;SDS011;17300;50.374;8.006;2022-08-19T13:29:04;3.72;;;3.42;;
30519;SDS011;17300;50.374;8.006;2022-08-19T13:31:49;3.10;;;2.80;;
30519;SDS011;17300;50.374;8.006;2022-08-19T13:34:33;3.10;;;2.90;;
30519;SDS011;17300;50.374;8.006;2022-08-19T13:37:02;3.20;;;3.00;;
30519;SDS011;17300;50.374;8.006;2022-08-19T13:39:30;3.03;;;2.83;;
30519;SDS011;17300;50.374;8.006;2022-08-19T13:41:58;2.97;;;2.78;;
30519;SDS011;17300;50.374;8.006;2022-08-19T13:44:27;3.00;;;2.90;;
30519;SDS011;17300;50.374;8.006;2022-08-19T13:46:55;3.63;;;3.33;;
30519;SDS011;17300;50.374;8.006;2022-08-19T13:49:31;3.20;;;3.00;;
30519;SDS011;17300;50.374;8.006;2022-08-19T13:51:58;3.92;;;3.63;;
30519;SDS011;17300;50.374;8.006;2022-08-19T13:54:30;4.10;;;3.67;;
30519;SDS011;17300;50.374;8.006;2022-08-19T13:57:12;3.55;;;3.35;;
30519;SDS011;17300;50.374;8.006;2022-08-19T13:59:54;3.60;;;3.40;;
30519;SDS011;17300;50.374;8.006;2022-08-19T14:02:49;3.72;;;3.42;;
30519;SDS011;17300;50.374;8.006;2022-08-19T14:05:37;3.60;;;3.38;;
30519;SDS011;17300;50.374;8.006;2022-08-19T14:08:30;3.83;;;3.53;;
30519;SDS011;17300;50.374;8.006;2022-08-19T14:13:53;4.00;;;3.70;;
30519;SDS011;17300;50.374;8.006;2022-08-19T14:16:27;3.80;;;3.60;;
30519;SDS011;17300;50.374;8.006;2022-08-19T14:18:56;3.80;;;3.47;;
30519;SDS011;17300;50.374;8.006;2022-08-19T14:21:25;4.07;;;3.83;;
30519;SDS011;17300;50.374;8.006;2022-08-19T14:24:06;4.60;;;4.30;;
30519;SDS011;17300;50.374;8.006;2022-08-19T14:26:41;4.88;;;4.57;;
30519;SDS011;17300;50.374;8.006;2022-08-19T14:30:00;4.45;;;4.15;;
30519;SDS011;17300;50.374;8.006;2022-08-19T14:32:51;5.10;;;4.72;;
30519;SDS011;17300;50.374;8.006;2022-08-19T14:35:27;5.30;;;4.90;;
30519;SDS011;17300;50.374;8.006;2022-08-19T14:38:19;4.90;;;4.60;;
30519;SDS011;17300;50.374;8.006;2022-08-19T14:41:10;4.85;;;4.45;;
30519;SDS011;17300;50.374;8.006;2022-08-19T14:43:45;4.85;;;4.55;;
30519;SDS011;17300;50.374;8.006;2022-08-19T14:46:13;5.22;;;4.15;;
30519;SDS011;17300;50.374;8.006;2022-08-19T14:48:45;4.30;;;3.95;;
30519;SDS011;17300;50.374;8.006;2022-08-19T14:51:15;4.47;;;4.18;;
30519;SDS011;17300;50.374;8.006;2022-08-19T14:53:42;4.15;;;3.85;;
30519;SDS011;17300;50.374;8.006;2022-08-19T14:56:10;4.45;;;4.05;;
30519;SDS011;17300;50.374;8.006;2022-08-19T14:58:39;3.85;;;3.60;;
30519;SDS011;17300;50.374;8.006;2022-08-19T15:01:07;4.20;;;3.90;;
30519;SDS011;17300;50.374;8.006;2022-08-19T15:03:34;3.17;;;2.97;;
30519;SDS011;17300;50.374;8.006;2022-08-19T15:06:03;3.42;;;3.22;;
30519;SDS011;17300;50.374;8.006;2022-08-19T15:08:31;4.18;;;3.88;;
30519;SDS011;17300;50.374;8.006;2022-08-19T15:11:02;3.88;;;3.58;;
30519;SDS011;17300;50.374;8.006;2022-08-19T15:13:29;4.10;;;3.90;;
30519;SDS011;17300;50.374;8.006;2022-08-19T15:15:59;3.63;;;3.42;;
30519;SDS011;17300;50.374;8.006;2022-08-19T15:18:26;4.20;;;3.90;;
30519;SDS011;17300;50.374;8.006;2022-08-19T15:20:57;5.07;;;4.00;;
30519;SDS011;17300;50.374;8.006;2022-08-19T15:23:42;4.18;;;3.90;;
30519;SDS011;17300;50.374;8.006;2022-08-19T15:26:10;5.07;;;4.30;;
30519;SDS011;17300;50.374;8.006;2022-08-19T15:28:37;4.30;;;4.00;;
30519;SDS011;17300;50.374;8.006;2022-08-19T15:31:05;4.13;;;3.83;;
30519;SDS011;17300;50.374;8.006;2022-08-19T15:33:33;4.82;;;4.53;;
30519;SDS011;17300;50.374;8.006;2022-08-19T15:36:01;4.28;;;3.95;;
30519;SDS011;17300;50.374;8.006;2022-08-19T15:38:29;3.85;;;3.65;;
30519;SDS011;17300;50.374;8.006;2022-08-19T15:40:59;4.35;;;3.70;;
30519;SDS011;17300;50.374;8.006;2022-08-19T15:43:47;3.85;;;3.55;;
30519;SDS011;17300;50.374;8.006;2022-08-19T15:46:16;3.53;;;3.33;;
30519;SDS011;17300;50.374;8.006;2022-08-19T15:48:44;3.60;;;3.40;;
30519;SDS011;17300;50.374;8.006;2022-08-19T15:51:11;4.35;;;4.03;;
30519;SDS011;17300;50.374;8.006;2022-08-19T15:53:38;3.92;;;3.60;;
30519;SDS011;17300;50.374;8.006;2022-08-19T15:56:07;4.57;;;4.28;;
30519;SDS011;17300;50.374;8.006;2022-08-19T15:58:34;5.75;;;4.15;;
30519;SDS011;17300;50.374;8.006;2022-08-19T16:01:18;4.05;;;3.85;;
30519;SDS011;17300;50.374;8.006;2022-08-19T16:04:03;4.15;;;3.85;;
30519;SDS011;17300;50.374;8.006;2022-08-19T16:06:47;3.95;;;3.65;;